sensor_id;sensor_type;location;lat;lon;timestamp;temperature;humidity
19180;DHT22;9722;48.754;8.868;2024-01-30T00:00:26;2.00;99.70
19180;DHT22;9722;48.754;8.868;2024-01-30T00:03:47;2.00;99.80
19180;DHT22;9722;48.754;8.868;2024-01-30T00:07:07;2.00;99.90
19180;DHT22;9722;48.754;8.868;2024-01-30T00:10:28;2.00;99.90
19180;DHT22;9722;48.754;8.868;2024-01-30T00:13:48;2.00;99.90
19180;DHT22;9722;48.754;8.868;2024-01-30T00:17:09;2.00;99.90
19180;DHT22;9722;48.754;8.868;2024-01-30T00:20:30;2.00;99.90
19180;DHT22;9722;48.754;8.868;2024-01-30T00:23:50;2.00;99.90
19180;DHT22;9722;48.754;8.868;2024-01-30T00:27:11;1.90;99.90
19180;DHT22;9722;48.754;8.868;2024-01-30T00:30:31;1.90;99.90
19180;DHT22;9722;48.754;8.868;2024-01-30T00:33:52;1.90;99.90
19180;DHT22;9722;48.754;8.868;2024-01-30T00:37:12;1.90;99.90
19180;DHT22;9722;48.754;8.868;2024-01-30T00:40:33;1.90;99.90
19180;DHT22;9722;48.754;8.868;2024-01-30T00:43:53;1.90;99.90
19180;DHT22;9722;48.754;8.868;2024-01-30T00:47:14;1.90;99.90
19180;DHT22;9722;48.754;8.868;2024-01-30T00:50:34;1.90;99.90
19180;DHT22;9722;48.754;8.868;2024-01-30T00:53:55;1.90;99.90
19180;DHT22;9722;48.754;8.868;2024-01-30T00:57:15;1.90;99.90
19180;DHT22;9722;48.754;8.868;2024-01-30T01:00:36;1.90;99.90
19180;DHT22;9722;48.754;8.868;2024-01-30T01:03:57;1.90;99.90
19180;DHT22;9722;48.754;8.868;2024-01-30T01:07:18;1.80;99.90
19180;DHT22;9722;48.754;8.868;2024-01-30T01:10:39;1.80;99.90
19180;DHT22;9722;48.754;8.868;2024-01-30T01:13:59;1.80;99.90
19180;DHT22;9722;48.754;8.868;2024-01-30T01:17:20;1.70;99.90
19180;DHT22;9722;48.754;8.868;2024-01-30T01:20:40;1.80;99.90
19180;DHT22;9722;48.754;8.868;2024-01-30T01:24:01;1.70;99.90
19180;DHT22;9722;48.754;8.868;2024-01-30T01:27:21;1.60;99.90
19180;DHT22;9722;48.754;8.868;2024-01-30T01:30:42;1.60;99.90
19180;DHT22;9722;48.754;8.868;2024-01-30T01:34:02;1.50;99.90
19180;DHT22;9722;48.754;8.868;2024-01-30T01:37:23;1.50;99.90
19180;DHT22;9722;48.754;8.868;2024-01-30T01:40:46;1.50;99.90
19180;DHT22;9722;48.754;8.868;2024-01-30T01:44:07;1.40;99.90
19180;DHT22;9722;48.754;8.868;2024-01-30T01:47:28;1.40;99.90
19180;DHT22;9722;48.754;8.868;2024-01-30T01:50:49;1.40;99.90
19180;DHT22;9722;48.754;8.868;2024-01-30T01:54:10;1.40;99.90
19180;DHT22;9722;48.754;8.868;2024-01-30T01:57:31;1.40;99.90
19180;DHT22;9722;48.754;8.868;2024-01-30T02:00:52;1.30;99.90
19180;DHT22;9722;48.754;8.868;2024-01-30T02:04:12;1.30;99.90
19180;DHT22;9722;48.754;8.868;2024-01-30T02:07:33;1.30;99.90
19180;DHT22;9722;48.754;8.868;2024-01-30T02:10:53;1.30;99.90
19180;DHT22;9722;48.754;8.868;2024-01-30T02:14:14;1.30;99.90
19180;DHT22;9722;48.754;8.868;2024-01-30T02:17:34;1.30;99.90
19180;DHT22;9722;48.754;8.868;2024-01-30T02:20:56;1.30;99.90
19180;DHT22;9722;48.754;8.868;2024-01-30T02:24:18;1.30;99.90
19180;DHT22;9722;48.754;8.868;2024-01-30T02:27:39;1.30;99.90
19180;DHT22;9722;48.754;8.868;2024-01-30T02:30:59;1.20;99.90
19180;DHT22;9722;48.754;8.868;2024-01-30T02:34:20;1.20;99.90
19180;DHT22;9722;48.754;8.868;2024-01-30T02:37:41;1.20;99.90
19180;DHT22;9722;48.754;8.868;2024-01-30T02:41:01;1.10;99.90
19180;DHT22;9722;48.754;8.868;2024-01-30T02:44:22;1.10;99.90
19180;DHT22;9722;48.754;8.868;2024-01-30T02:47:43;1.00;99.90
19180;DHT22;9722;48.754;8.868;2024-01-30T02:51:03;1.00;99.90
19180;DHT22;9722;48.754;8.868;2024-01-30T02:54:24;1.00;99.90
19180;DHT22;9722;48.754;8.868;2024-01-30T02:57:44;1.00;99.90
19180;DHT22;9722;48.754;8.868;2024-01-30T03:01:05;1.00;99.90
19180;DHT22;9722;48.754;8.868;2024-01-30T03:04:26;1.00;99.90
19180;DHT22;9722;48.754;8.868;2024-01-30T03:07:47;1.00;99.90
19180;DHT22;9722;48.754;8.868;2024-01-30T03:11:07;1.00;99.90
19180;DHT22;9722;48.754;8.868;2024-01-30T03:14:30;0.90;99.90
19180;DHT22;9722;48.754;8.868;2024-01-30T03:17:51;1.00;99.90
19180;DHT22;9722;48.754;8.868;2024-01-30T03:21:11;0.90;99.90
19180;DHT22;9722;48.754;8.868;2024-01-30T03:24:32;0.90;99.90
19180;DHT22;9722;48.754;8.868;2024-01-30T03:27:52;0.90;99.90
19180;DHT22;9722;48.754;8.868;2024-01-30T03:31:15;1.00;99.90
19180;DHT22;9722;48.754;8.868;2024-01-30T03:34:36;0.90;99.90
19180;DHT22;9722;48.754;8.868;2024-01-30T03:37:56;0.90;99.90
19180;DHT22;9722;48.754;8.868;2024-01-30T03:41:17;0.90;99.90
19180;DHT22;9722;48.754;8.868;2024-01-30T03:44:37;0.90;99.90
19180;DHT22;9722;48.754;8.868;2024-01-30T03:47:58;0.80;99.90
19180;DHT22;9722;48.754;8.868;2024-01-30T03:51:18;0.80;99.90
19180;DHT22;9722;48.754;8.868;2024-01-30T03:54:39;0.80;99.90
19180;DHT22;9722;48.754;8.868;2024-01-30T03:57:59;0.80;99.90
19180;DHT22;9722;48.754;8.868;2024-01-30T04:01:20;0.80;99.90
19180;DHT22;9722;48.754;8.868;2024-01-30T04:04:40;0.80;99.90
19180;DHT22;9722;48.754;8.868;2024-01-30T04:08:01;0.80;99.90
19180;DHT22;9722;48.754;8.868;2024-01-30T04:11:21;0.80;99.90
19180;DHT22;9722;48.754;8.868;2024-01-30T04:14:42;0.80;99.90
19180;DHT22;9722;48.754;8.868;2024-01-30T04:18:03;0.90;99.90
19180;DHT22;9722;48.754;8.868;2024-01-30T04:21:23;0.90;99.90
19180;DHT22;9722;48.754;8.868;2024-01-30T04:24:44;0.90;99.90
19180;DHT22;9722;48.754;8.868;2024-01-30T04:28:04;0.90;99.90
19180;DHT22;9722;48.754;8.868;2024-01-30T04:31:25;0.90;99.90
19180;DHT22;9722;48.754;8.868;2024-01-30T04:34:45;0.90;99.90
19180;DHT22;9722;48.754;8.868;2024-01-30T04:38:06;0.90;99.90
19180;DHT22;9722;48.754;8.868;2024-01-30T04:41:26;0.80;99.90
19180;DHT22;9722;48.754;8.868;2024-01-30T04:44:51;0.80;99.90
19180;DHT22;9722;48.754;8.868;2024-01-30T04:48:12;0.80;99.90
19180;DHT22;9722;48.754;8.868;2024-01-30T04:51:32;0.80;99.90
19180;DHT22;9722;48.754;8.868;2024-01-30T04:54:53;0.70;99.90
19180;DHT22;9722;48.754;8.868;2024-01-30T04:58:13;0.80;99.90
19180;DHT22;9722;48.754;8.868;2024-01-30T05:01:34;0.70;99.90
19180;DHT22;9722;48.754;8.868;2024-01-30T05:04:54;0.70;99.90
19180;DHT22;9722;48.754;8.868;2024-01-30T05:08:15;0.70;99.90
19180;DHT22;9722;48.754;8.868;2024-01-30T05:11:40;0.70;99.90
19180;DHT22;9722;48.754;8.868;2024-01-30T05:15:01;0.70;99.90
19180;DHT22;9722;48.754;8.868;2024-01-30T05:18:21;0.70;99.90
19180;DHT22;9722;48.754;8.868;2024-01-30T05:21:42;0.70;99.90
19180;DHT22;9722;48.754;8.868;2024-01-30T05:25:03;0.80;99.90
19180;DHT22;9722;48.754;8.868;2024-01-30T05:28:24;0.80;99.90
19180;DHT22;9722;48.754;8.868;2024-01-30T05:31:44;0.80;99.90
19180;DHT22;9722;48.754;8.868;2024-01-30T05:35:05;0.70;99.90
19180;DHT22;9722;48.754;8.868;2024-01-30T05:38:25;0.70;99.90
19180;DHT22;9722;48.754;8.868;2024-01-30T05:41:46;0.70;99.90
19180;DHT22;9722;48.754;8.868;2024-01-30T05:45:07;0.60;99.90
19180;DHT22;9722;48.754;8.868;2024-01-30T05:48:28;0.60;99.90
19180;DHT22;9722;48.754;8.868;2024-01-30T05:51:48;0.60;99.90
19180;DHT22;9722;48.754;8.868;2024-01-30T05:55:09;0.60;99.90
19180;DHT22;9722;48.754;8.868;2024-01-30T05:58:30;0.60;99.90
19180;DHT22;9722;48.754;8.868;2024-01-30T06:01:51;0.60;99.90
19180;DHT22;9722;48.754;8.868;2024-01-30T06:05:12;0.60;99.90
19180;DHT22;9722;48.754;8.868;2024-01-30T06:08:32;0.50;99.90
19180;DHT22;9722;48.754;8.868;2024-01-30T06:11:52;0.50;99.90
19180;DHT22;9722;48.754;8.868;2024-01-30T06:15:13;0.50;99.90
19180;DHT22;9722;48.754;8.868;2024-01-30T06:18:33;0.50;99.90
19180;DHT22;9722;48.754;8.868;2024-01-30T06:21:54;0.50;99.90
19180;DHT22;9722;48.754;8.868;2024-01-30T06:25:14;0.50;99.90
19180;DHT22;9722;48.754;8.868;2024-01-30T06:28:36;0.50;99.90
19180;DHT22;9722;48.754;8.868;2024-01-30T06:31:57;0.50;99.90
19180;DHT22;9722;48.754;8.868;2024-01-30T06:35:17;0.50;99.90
19180;DHT22;9722;48.754;8.868;2024-01-30T06:38:38;0.40;99.90
19180;DHT22;9722;48.754;8.868;2024-01-30T06:41:58;0.40;99.90
19180;DHT22;9722;48.754;8.868;2024-01-30T06:45:19;0.40;99.90
19180;DHT22;9722;48.754;8.868;2024-01-30T06:48:39;0.40;99.90
19180;DHT22;9722;48.754;8.868;2024-01-30T06:52:00;0.40;99.90
19180;DHT22;9722;48.754;8.868;2024-01-30T06:55:21;0.40;99.90
19180;DHT22;9722;48.754;8.868;2024-01-30T06:58:41;0.30;99.90
19180;DHT22;9722;48.754;8.868;2024-01-30T07:02:02;0.30;99.90
19180;DHT22;9722;48.754;8.868;2024-01-30T07:05:22;0.30;99.90
19180;DHT22;9722;48.754;8.868;2024-01-30T07:08:43;0.30;99.90
19180;DHT22;9722;48.754;8.868;2024-01-30T07:12:03;0.30;99.90
19180;DHT22;9722;48.754;8.868;2024-01-30T07:15:24;0.30;99.90
19180;DHT22;9722;48.754;8.868;2024-01-30T07:18:45;0.30;99.90
19180;DHT22;9722;48.754;8.868;2024-01-30T07:22:05;0.30;99.90
19180;DHT22;9722;48.754;8.868;2024-01-30T07:25:26;0.40;99.90
19180;DHT22;9722;48.754;8.868;2024-01-30T07:28:50;0.50;99.90
19180;DHT22;9722;48.754;8.868;2024-01-30T07:32:11;0.80;99.90
19180;DHT22;9722;48.754;8.868;2024-01-30T07:35:31;1.10;99.90
19180;DHT22;9722;48.754;8.868;2024-01-30T07:38:52;1.20;99.90
19180;DHT22;9722;48.754;8.868;2024-01-30T07:42:14;1.30;99.90
19180;DHT22;9722;48.754;8.868;2024-01-30T07:45:35;1.40;99.90
19180;DHT22;9722;48.754;8.868;2024-01-30T07:48:55;1.60;99.90
19180;DHT22;9722;48.754;8.868;2024-01-30T07:52:17;1.80;99.90
19180;DHT22;9722;48.754;8.868;2024-01-30T07:55:37;1.90;99.90
19180;DHT22;9722;48.754;8.868;2024-01-30T07:58:58;2.10;99.90
19180;DHT22;9722;48.754;8.868;2024-01-30T08:02:19;2.30;99.90
19180;DHT22;9722;48.754;8.868;2024-01-30T08:05:40;2.60;99.90
19180;DHT22;9722;48.754;8.868;2024-01-30T08:09:01;2.90;99.90
19180;DHT22;9722;48.754;8.868;2024-01-30T08:12:21;3.20;99.90
19180;DHT22;9722;48.754;8.868;2024-01-30T08:15:42;3.40;99.90
19180;DHT22;9722;48.754;8.868;2024-01-30T08:19:02;3.30;99.90
19180;DHT22;9722;48.754;8.868;2024-01-30T08:22:23;3.30;99.90
19180;DHT22;9722;48.754;8.868;2024-01-30T08:25:44;3.10;99.90
19180;DHT22;9722;48.754;8.868;2024-01-30T08:29:04;3.00;99.90
19180;DHT22;9722;48.754;8.868;2024-01-30T08:32:25;3.00;99.90
19180;DHT22;9722;48.754;8.868;2024-01-30T08:35:45;3.10;99.90
19180;DHT22;9722;48.754;8.868;2024-01-30T08:39:05;3.30;99.90
19180;DHT22;9722;48.754;8.868;2024-01-30T08:42:26;3.60;99.90
19180;DHT22;9722;48.754;8.868;2024-01-30T08:45:46;4.00;99.90
19180;DHT22;9722;48.754;8.868;2024-01-30T08:49:07;4.40;99.90
19180;DHT22;9722;48.754;8.868;2024-01-30T08:52:28;5.10;99.20
19180;DHT22;9722;48.754;8.868;2024-01-30T08:55:48;5.90;98.00
19180;DHT22;9722;48.754;8.868;2024-01-30T08:59:09;6.50;96.60
19180;DHT22;9722;48.754;8.868;2024-01-30T09:02:29;7.10;95.10
19180;DHT22;9722;48.754;8.868;2024-01-30T09:05:50;7.60;93.20
19180;DHT22;9722;48.754;8.868;2024-01-30T09:09:10;7.80;92.10
19180;DHT22;9722;48.754;8.868;2024-01-30T09:12:31;8.10;91.70
19180;DHT22;9722;48.754;8.868;2024-01-30T09:15:51;8.50;91.00
19180;DHT22;9722;48.754;8.868;2024-01-30T09:19:12;8.80;89.70
19180;DHT22;9722;48.754;8.868;2024-01-30T09:22:33;8.90;87.90
19180;DHT22;9722;48.754;8.868;2024-01-30T09:25:53;8.90;86.50
19180;DHT22;9722;48.754;8.868;2024-01-30T09:29:14;8.70;85.50
19180;DHT22;9722;48.754;8.868;2024-01-30T09:32:34;8.60;84.90
19180;DHT22;9722;48.754;8.868;2024-01-30T09:35:55;8.40;84.60
19180;DHT22;9722;48.754;8.868;2024-01-30T09:39:15;8.20;84.60
19180;DHT22;9722;48.754;8.868;2024-01-30T09:42:37;8.10;84.30
19180;DHT22;9722;48.754;8.868;2024-01-30T09:45:59;8.00;84.30
19180;DHT22;9722;48.754;8.868;2024-01-30T09:49:20;7.90;84.50
19180;DHT22;9722;48.754;8.868;2024-01-30T09:52:43;7.90;84.70
19180;DHT22;9722;48.754;8.868;2024-01-30T09:56:04;7.80;84.90
19180;DHT22;9722;48.754;8.868;2024-01-30T09:59:25;7.80;84.80
19180;DHT22;9722;48.754;8.868;2024-01-30T10:02:46;7.80;84.90
19180;DHT22;9722;48.754;8.868;2024-01-30T10:06:08;7.80;84.90
19180;DHT22;9722;48.754;8.868;2024-01-30T10:09:32;7.70;84.90
19180;DHT22;9722;48.754;8.868;2024-01-30T10:12:53;7.70;85.40
19180;DHT22;9722;48.754;8.868;2024-01-30T10:16:14;7.70;85.80
19180;DHT22;9722;48.754;8.868;2024-01-30T10:19:41;7.70;86.40
19180;DHT22;9722;48.754;8.868;2024-01-30T10:23:02;7.70;87.20
19180;DHT22;9722;48.754;8.868;2024-01-30T10:26:23;7.80;87.60
19180;DHT22;9722;48.754;8.868;2024-01-30T10:29:43;7.90;87.80
19180;DHT22;9722;48.754;8.868;2024-01-30T10:33:04;8.20;87.60
19180;DHT22;9722;48.754;8.868;2024-01-30T10:36:28;8.50;86.70
19180;DHT22;9722;48.754;8.868;2024-01-30T10:39:50;9.00;85.20
19180;DHT22;9722;48.754;8.868;2024-01-30T10:43:15;9.40;83.30
19180;DHT22;9722;48.754;8.868;2024-01-30T10:46:38;9.90;81.20
19180;DHT22;9722;48.754;8.868;2024-01-30T10:49:59;10.60;77.90
19180;DHT22;9722;48.754;8.868;2024-01-30T10:53:21;11.20;75.90
19180;DHT22;9722;48.754;8.868;2024-01-30T10:56:43;11.80;74.00
19180;DHT22;9722;48.754;8.868;2024-01-30T11:00:08;12.20;72.20
19180;DHT22;9722;48.754;8.868;2024-01-30T11:03:34;12.30;70.80
19180;DHT22;9722;48.754;8.868;2024-01-30T11:06:56;12.20;70.00
19180;DHT22;9722;48.754;8.868;2024-01-30T11:10:17;12.00;69.90
19180;DHT22;9722;48.754;8.868;2024-01-30T11:13:38;11.70;69.90
19180;DHT22;9722;48.754;8.868;2024-01-30T11:16:59;11.60;70.00
19180;DHT22;9722;48.754;8.868;2024-01-30T11:20:26;11.60;70.00
19180;DHT22;9722;48.754;8.868;2024-01-30T11:23:49;11.80;70.40
19180;DHT22;9722;48.754;8.868;2024-01-30T11:27:10;12.00;70.50
19180;DHT22;9722;48.754;8.868;2024-01-30T11:30:32;12.20;70.70
19180;DHT22;9722;48.754;8.868;2024-01-30T11:33:53;12.50;70.10
19180;DHT22;9722;48.754;8.868;2024-01-30T11:37:15;12.70;69.60
19180;DHT22;9722;48.754;8.868;2024-01-30T11:40:37;12.80;69.10
19180;DHT22;9722;48.754;8.868;2024-01-30T11:43:58;12.90;68.80
19180;DHT22;9722;48.754;8.868;2024-01-30T11:47:19;13.10;68.60
19180;DHT22;9722;48.754;8.868;2024-01-30T11:50:39;13.30;68.30
19180;DHT22;9722;48.754;8.868;2024-01-30T11:54:04;13.50;67.80
19180;DHT22;9722;48.754;8.868;2024-01-30T11:57:27;13.80;67.20
19180;DHT22;9722;48.754;8.868;2024-01-30T12:00:56;14.00;66.60
19180;DHT22;9722;48.754;8.868;2024-01-30T12:04:18;14.20;66.10
19180;DHT22;9722;48.754;8.868;2024-01-30T12:07:38;14.40;65.50
19180;DHT22;9722;48.754;8.868;2024-01-30T12:10:59;14.70;64.90
19180;DHT22;9722;48.754;8.868;2024-01-30T12:14:22;15.00;64.20
19180;DHT22;9722;48.754;8.868;2024-01-30T12:17:43;15.80;63.40
19180;DHT22;9722;48.754;8.868;2024-01-30T12:21:04;17.00;60.90
19180;DHT22;9722;48.754;8.868;2024-01-30T12:24:26;18.20;59.00
19180;DHT22;9722;48.754;8.868;2024-01-30T12:27:48;19.50;56.90
19180;DHT22;9722;48.754;8.868;2024-01-30T12:31:12;20.60;54.60
19180;DHT22;9722;48.754;8.868;2024-01-30T12:34:32;21.10;53.00
19180;DHT22;9722;48.754;8.868;2024-01-30T12:37:53;21.50;52.30
19180;DHT22;9722;48.754;8.868;2024-01-30T12:41:13;22.70;50.90
19180;DHT22;9722;48.754;8.868;2024-01-30T12:44:34;24.20;48.90
19180;DHT22;9722;48.754;8.868;2024-01-30T12:47:54;25.40;46.70
19180;DHT22;9722;48.754;8.868;2024-01-30T12:51:15;26.50;44.70
19180;DHT22;9722;48.754;8.868;2024-01-30T12:54:36;27.40;43.10
19180;DHT22;9722;48.754;8.868;2024-01-30T12:57:56;28.40;41.50
19180;DHT22;9722;48.754;8.868;2024-01-30T13:01:17;29.10;40.10
19180;DHT22;9722;48.754;8.868;2024-01-30T13:04:37;29.40;39.10
19180;DHT22;9722;48.754;8.868;2024-01-30T13:07:58;29.50;38.10
19180;DHT22;9722;48.754;8.868;2024-01-30T13:11:18;28.50;37.90
19180;DHT22;9722;48.754;8.868;2024-01-30T13:14:39;27.60;38.70
19180;DHT22;9722;48.754;8.868;2024-01-30T13:18:00;27.10;39.00
19180;DHT22;9722;48.754;8.868;2024-01-30T13:21:20;27.00;38.90
19180;DHT22;9722;48.754;8.868;2024-01-30T13:24:41;26.90;38.90
19180;DHT22;9722;48.754;8.868;2024-01-30T13:28:01;26.60;38.90
19180;DHT22;9722;48.754;8.868;2024-01-30T13:31:23;26.20;39.20
19180;DHT22;9722;48.754;8.868;2024-01-30T13:34:43;25.70;39.40
19180;DHT22;9722;48.754;8.868;2024-01-30T13:38:04;25.00;39.90
19180;DHT22;9722;48.754;8.868;2024-01-30T13:41:24;24.20;40.40
19180;DHT22;9722;48.754;8.868;2024-01-30T13:44:45;23.60;41.00
19180;DHT22;9722;48.754;8.868;2024-01-30T13:48:05;23.30;41.60
19180;DHT22;9722;48.754;8.868;2024-01-30T13:51:26;22.90;41.90
19180;DHT22;9722;48.754;8.868;2024-01-30T13:54:47;22.30;42.10
19180;DHT22;9722;48.754;8.868;2024-01-30T13:58:07;21.80;42.70
19180;DHT22;9722;48.754;8.868;2024-01-30T14:01:28;21.30;43.40
19180;DHT22;9722;48.754;8.868;2024-01-30T14:04:48;20.70;43.70
19180;DHT22;9722;48.754;8.868;2024-01-30T14:08:09;20.30;44.20
19180;DHT22;9722;48.754;8.868;2024-01-30T14:11:30;19.80;44.80
19180;DHT22;9722;48.754;8.868;2024-01-30T14:14:50;19.60;45.40
19180;DHT22;9722;48.754;8.868;2024-01-30T14:18:11;19.60;45.80
19180;DHT22;9722;48.754;8.868;2024-01-30T14:21:31;19.60;45.80
19180;DHT22;9722;48.754;8.868;2024-01-30T14:24:52;19.50;45.80
19180;DHT22;9722;48.754;8.868;2024-01-30T14:28:12;19.30;46.30
19180;DHT22;9722;48.754;8.868;2024-01-30T14:31:33;19.00;46.50
19180;DHT22;9722;48.754;8.868;2024-01-30T14:34:53;18.60;46.70
19180;DHT22;9722;48.754;8.868;2024-01-30T14:38:14;18.20;47.00
19180;DHT22;9722;48.754;8.868;2024-01-30T14:41:34;17.80;47.40
19180;DHT22;9722;48.754;8.868;2024-01-30T14:44:56;17.40;47.80
19180;DHT22;9722;48.754;8.868;2024-01-30T14:48:16;17.00;48.10
19180;DHT22;9722;48.754;8.868;2024-01-30T14:51:37;16.60;48.40
19180;DHT22;9722;48.754;8.868;2024-01-30T14:54:58;16.30;49.00
19180;DHT22;9722;48.754;8.868;2024-01-30T14:58:18;15.90;49.40
19180;DHT22;9722;48.754;8.868;2024-01-30T15:01:39;15.50;49.70
19180;DHT22;9722;48.754;8.868;2024-01-30T15:04:59;15.30;50.20
19180;DHT22;9722;48.754;8.868;2024-01-30T15:08:20;15.00;50.50
19180;DHT22;9722;48.754;8.868;2024-01-30T15:11:41;14.80;51.00
19180;DHT22;9722;48.754;8.868;2024-01-30T15:15:03;14.50;51.40
19180;DHT22;9722;48.754;8.868;2024-01-30T15:18:23;14.30;51.90
19180;DHT22;9722;48.754;8.868;2024-01-30T15:21:44;14.10;52.80
19180;DHT22;9722;48.754;8.868;2024-01-30T15:25:05;13.90;52.70
19180;DHT22;9722;48.754;8.868;2024-01-30T15:28:36;13.70;53.10
19180;DHT22;9722;48.754;8.868;2024-01-30T15:31:57;13.40;53.70
19180;DHT22;9722;48.754;8.868;2024-01-30T15:35:18;13.20;54.10
19180;DHT22;9722;48.754;8.868;2024-01-30T15:38:38;13.10;54.80
19180;DHT22;9722;48.754;8.868;2024-01-30T15:41:59;12.90;55.10
19180;DHT22;9722;48.754;8.868;2024-01-30T15:45:19;12.70;55.60
19180;DHT22;9722;48.754;8.868;2024-01-30T15:48:40;12.60;56.10
19180;DHT22;9722;48.754;8.868;2024-01-30T15:52:01;12.50;56.50
19180;DHT22;9722;48.754;8.868;2024-01-30T15:55:21;12.40;56.90
19180;DHT22;9722;48.754;8.868;2024-01-30T15:58:42;12.20;57.20
19180;DHT22;9722;48.754;8.868;2024-01-30T16:02:02;12.10;57.70
19180;DHT22;9722;48.754;8.868;2024-01-30T16:05:23;11.90;58.00
19180;DHT22;9722;48.754;8.868;2024-01-30T16:08:44;11.80;58.30
19180;DHT22;9722;48.754;8.868;2024-01-30T16:12:05;11.70;58.40
19180;DHT22;9722;48.754;8.868;2024-01-30T16:15:25;11.60;58.70
19180;DHT22;9722;48.754;8.868;2024-01-30T16:18:46;11.50;59.10
19180;DHT22;9722;48.754;8.868;2024-01-30T16:22:06;11.40;59.30
19180;DHT22;9722;48.754;8.868;2024-01-30T16:25:27;11.40;59.90
19180;DHT22;9722;48.754;8.868;2024-01-30T16:28:47;11.30;60.30
19180;DHT22;9722;48.754;8.868;2024-01-30T16:32:08;11.20;60.70
19180;DHT22;9722;48.754;8.868;2024-01-30T16:35:28;11.10;61.50
19180;DHT22;9722;48.754;8.868;2024-01-30T16:38:49;11.00;61.80
19180;DHT22;9722;48.754;8.868;2024-01-30T16:42:10;10.90;62.20
19180;DHT22;9722;48.754;8.868;2024-01-30T16:45:31;10.90;62.60
19180;DHT22;9722;48.754;8.868;2024-01-30T16:48:52;10.70;63.00
19180;DHT22;9722;48.754;8.868;2024-01-30T16:52:12;10.70;63.80
19180;DHT22;9722;48.754;8.868;2024-01-30T16:55:33;10.60;64.10
19180;DHT22;9722;48.754;8.868;2024-01-30T16:58:53;10.50;64.60
19180;DHT22;9722;48.754;8.868;2024-01-30T17:02:14;10.40;65.00
19180;DHT22;9722;48.754;8.868;2024-01-30T17:05:35;10.30;65.60
19180;DHT22;9722;48.754;8.868;2024-01-30T17:08:55;10.20;66.40
19180;DHT22;9722;48.754;8.868;2024-01-30T17:12:16;10.10;67.00
19180;DHT22;9722;48.754;8.868;2024-01-30T17:15:36;9.90;68.60
19180;DHT22;9722;48.754;8.868;2024-01-30T17:18:57;9.80;69.20
19180;DHT22;9722;48.754;8.868;2024-01-30T17:22:17;9.70;69.10
19180;DHT22;9722;48.754;8.868;2024-01-30T17:25:38;9.70;69.60
19180;DHT22;9722;48.754;8.868;2024-01-30T17:28:59;9.60;69.80
19180;DHT22;9722;48.754;8.868;2024-01-30T17:32:19;9.60;70.10
19180;DHT22;9722;48.754;8.868;2024-01-30T17:35:40;9.60;70.50
19180;DHT22;9722;48.754;8.868;2024-01-30T17:39:01;9.50;71.30
19180;DHT22;9722;48.754;8.868;2024-01-30T17:42:21;9.30;72.20
19180;DHT22;9722;48.754;8.868;2024-01-30T17:45:42;9.20;73.10
19180;DHT22;9722;48.754;8.868;2024-01-30T17:49:02;9.10;73.80
19180;DHT22;9722;48.754;8.868;2024-01-30T17:52:24;9.00;75.20
19180;DHT22;9722;48.754;8.868;2024-01-30T17:55:45;8.90;75.10
19180;DHT22;9722;48.754;8.868;2024-01-30T17:59:05;8.80;75.60
19180;DHT22;9722;48.754;8.868;2024-01-30T18:02:26;8.80;77.10
19180;DHT22;9722;48.754;8.868;2024-01-30T18:05:46;8.80;76.90
19180;DHT22;9722;48.754;8.868;2024-01-30T18:09:07;8.80;77.40
19180;DHT22;9722;48.754;8.868;2024-01-30T18:12:27;8.90;77.90
19180;DHT22;9722;48.754;8.868;2024-01-30T18:15:48;8.90;78.50
19180;DHT22;9722;48.754;8.868;2024-01-30T18:19:08;8.90;79.10
19180;DHT22;9722;48.754;8.868;2024-01-30T18:22:29;8.80;80.00
19180;DHT22;9722;48.754;8.868;2024-01-30T18:25:49;8.60;80.90
19180;DHT22;9722;48.754;8.868;2024-01-30T18:29:10;8.40;82.20
19180;DHT22;9722;48.754;8.868;2024-01-30T18:32:30;8.30;83.10
19180;DHT22;9722;48.754;8.868;2024-01-30T18:35:51;8.20;83.80
19180;DHT22;9722;48.754;8.868;2024-01-30T18:39:11;8.20;84.60
19180;DHT22;9722;48.754;8.868;2024-01-30T18:42:32;8.20;85.40
19180;DHT22;9722;48.754;8.868;2024-01-30T18:45:53;8.20;86.30
19180;DHT22;9722;48.754;8.868;2024-01-30T18:49:14;8.20;86.80
19180;DHT22;9722;48.754;8.868;2024-01-30T18:52:35;8.20;87.50
19180;DHT22;9722;48.754;8.868;2024-01-30T18:55:55;8.10;88.00
19180;DHT22;9722;48.754;8.868;2024-01-30T18:59:16;8.10;88.80
19180;DHT22;9722;48.754;8.868;2024-01-30T19:02:38;8.00;89.60
19180;DHT22;9722;48.754;8.868;2024-01-30T19:05:58;8.00;90.30
19180;DHT22;9722;48.754;8.868;2024-01-30T19:09:20;7.90;90.50
19180;DHT22;9722;48.754;8.868;2024-01-30T19:12:42;7.90;91.00
19180;DHT22;9722;48.754;8.868;2024-01-30T19:16:03;7.90;91.50
19180;DHT22;9722;48.754;8.868;2024-01-30T19:19:23;7.90;91.70
19180;DHT22;9722;48.754;8.868;2024-01-30T19:22:44;8.00;91.90
19180;DHT22;9722;48.754;8.868;2024-01-30T19:26:04;8.10;92.00
19180;DHT22;9722;48.754;8.868;2024-01-30T19:29:25;8.10;92.00
19180;DHT22;9722;48.754;8.868;2024-01-30T19:32:46;8.00;92.30
19180;DHT22;9722;48.754;8.868;2024-01-30T19:36:06;8.50;92.70
19180;DHT22;9722;48.754;8.868;2024-01-30T19:39:28;7.90;92.80
19180;DHT22;9722;48.754;8.868;2024-01-30T19:42:48;7.90;92.90
19180;DHT22;9722;48.754;8.868;2024-01-30T19:46:11;7.90;93.10
19180;DHT22;9722;48.754;8.868;2024-01-30T19:49:32;7.90;93.50
19180;DHT22;9722;48.754;8.868;2024-01-30T19:52:53;7.80;93.50
19180;DHT22;9722;48.754;8.868;2024-01-30T19:56:13;7.80;93.80
19180;DHT22;9722;48.754;8.868;2024-01-30T19:59:34;7.70;93.90
19180;DHT22;9722;48.754;8.868;2024-01-30T20:02:55;7.70;94.20
19180;DHT22;9722;48.754;8.868;2024-01-30T20:06:16;7.70;94.30
19180;DHT22;9722;48.754;8.868;2024-01-30T20:09:36;7.60;94.50
19180;DHT22;9722;48.754;8.868;2024-01-30T20:12:57;7.60;94.70
19180;DHT22;9722;48.754;8.868;2024-01-30T20:16:17;7.60;95.00
19180;DHT22;9722;48.754;8.868;2024-01-30T20:19:38;7.50;95.10
19180;DHT22;9722;48.754;8.868;2024-01-30T20:22:58;7.50;95.10
19180;DHT22;9722;48.754;8.868;2024-01-30T20:26:19;7.60;95.40
19180;DHT22;9722;48.754;8.868;2024-01-30T20:29:39;7.50;95.50
19180;DHT22;9722;48.754;8.868;2024-01-30T20:33:00;7.50;95.70
19180;DHT22;9722;48.754;8.868;2024-01-30T20:36:20;7.50;95.80
19180;DHT22;9722;48.754;8.868;2024-01-30T20:39:41;7.50;96.10
19180;DHT22;9722;48.754;8.868;2024-01-30T20:43:01;7.40;96.30
19180;DHT22;9722;48.754;8.868;2024-01-30T20:46:23;7.50;96.40
19180;DHT22;9722;48.754;8.868;2024-01-30T20:49:43;7.40;96.70
19180;DHT22;9722;48.754;8.868;2024-01-30T20:53:04;7.40;97.00
19180;DHT22;9722;48.754;8.868;2024-01-30T20:56:24;7.40;96.90
19180;DHT22;9722;48.754;8.868;2024-01-30T20:59:45;7.30;96.80
19180;DHT22;9722;48.754;8.868;2024-01-30T21:03:05;7.30;96.70
19180;DHT22;9722;48.754;8.868;2024-01-30T21:06:26;7.20;96.60
19180;DHT22;9722;48.754;8.868;2024-01-30T21:09:46;7.20;96.70
19180;DHT22;9722;48.754;8.868;2024-01-30T21:13:08;7.20;96.70
19180;DHT22;9722;48.754;8.868;2024-01-30T21:16:28;7.10;96.70
19180;DHT22;9722;48.754;8.868;2024-01-30T21:19:49;7.10;96.90
19180;DHT22;9722;48.754;8.868;2024-01-30T21:23:10;7.10;97.00
19180;DHT22;9722;48.754;8.868;2024-01-30T21:26:30;7.10;97.10
19180;DHT22;9722;48.754;8.868;2024-01-30T21:29:50;7.10;97.10
19180;DHT22;9722;48.754;8.868;2024-01-30T21:33:11;7.10;97.20
19180;DHT22;9722;48.754;8.868;2024-01-30T21:36:32;7.00;97.20
19180;DHT22;9722;48.754;8.868;2024-01-30T21:39:52;6.90;97.20
19180;DHT22;9722;48.754;8.868;2024-01-30T21:43:14;6.90;97.40